Tiempo atmosférico en la estación meteorológica de Barbastro, Huesca (305 m.)



Fecha
DESCASC
Temp. máxima en grados centígrados (hora)
DESCASC
Temp. mínima en grados centígrados (hora)
DESCASC
Temp. media en grados centígrados
DESCASC
Racha de viento máxima en m/sg (hora)
DESCASC
Velocidad máxima media en intervalos de 10 minutos(hora)
DESCASC
Precipitaciones diarias en mm
DESCASC
Precipitaciones de 00:00 a 06:00 en mm
DESCASC
Precipitaciones de 06:00 a 12:00 en mm
DESCASC
Precipitaciones de 12:00 a 18:00 en mm
DESCASC
Precipitaciones de 18:00 a 24:00 en mm
DESCASC
18-01-2018 -- (--) -- (--) -- -- (--) -- (--) -- 0 0 -- 0
17-01-2018 15 (13:00) 1.6 (23:50) 8.3 16.11 (07:50) 7.22 (08:00) 0 0 0 0 0
16-01-2018 15.6 (15:20) -1.2 (06:10) 7.2 16.39 (17:00) 6.67 (16:20) 0 0 0 0 0
15-01-2018 6.3 (14:40) -2.6 (07:10) 1.9 3.61 (13:00) 1.94 (12:20) 0 0 0 0 0
14-01-2018 9.6 (16:30) -0.7 (-00:0) 4.5 6.11 (02:20) 3.06 (01:40) 2.2 2.2 0 0 0
13-01-2018 9.7 (17:00) -2.2 (-00:0) 3.7 4.72 (12:40) 2.5 (12:50) 0.2 0 0 0 0.2
12-01-2018 9 (16:50) -3.6 (-00:0) 2.7 5.56 (13:10) 3.61 (13:10) 0 0 0 0 0
11-01-2018 12.1 (14:00) 0.8 (00:00) 6.5 11.94 (14:50) 6.11 (14:50) 0 0 0 0 0
10-01-2018 12.8 (15:50) -0.6 (-00:0) 6.1 10 (16:00) 5 (16:00) 0.2 0 0 0 0.2
09-01-2018 8.7 (15:30) 2.3 (00:00) 5.5 4.44 (21:30) 2.5 (11:10) 0 0 0 0 0
08-01-2018 5.4 (15:20) -0.7 (-00:0) 2.4 4.17 (14:50) 2.22 (12:20) 0 0 0 0 0
07-01-2018 9.3 (15:10) 3.2 (00:00) 6.3 6.39 (02:50) 3.33 (04:40) 5 3.8 1 0 0.2
06-01-2018 13.3 (21:10) 7.5 (00:00) 10.4 10.56 (23:40) 5 (23:00) 8.4 0 0 0 8.4
05-01-2018 16.9 (16:20) 1.8 (00:00) 9.3 5.83 (14:50) 3.06 (13:00) 0 0 0 0 0
04-01-2018 19.8 (14:10) 7.8 (23:59) 13.8 13.06 (00:10) 5.28 (00:10) 0 0 0 0 0
03-01-2018 20.5 (14:20) 6.3 (00:00) 13.4 13.89 (12:50) 6.67 (23:20) 0 0 0 0 0
02-01-2018 16.8 (14:50) 4.4 (00:00) 10.6 13.33 (20:50) 7.78 (21:00) 0 0 0 0 0
01-01-2018 12.1 (14:00) 2.7 (00:00) 7.4 11.39 (05:40) 5.56 (06:00) 0.2 0 0 0 0.2
31-12-2017 10.3 (15:40) 1.3 (00:00) 5.8 8.61 (21:40) 3.33 (23:20) 0.2 0 0 0 0.2
30-12-2017 18.9 (15:10) 0.1 (00:00) 9.5 9.17 (15:20) 3.61 (14:10) 0 0 0 0 0
29-12-2017 12.6 (15:40) 1.3 (00:00) 7 7.5 (01:50) 3.33 (01:50) 0.4 0 0.4 0 0
28-12-2017 8 (23:10) -0.3 (00:00) 3.8 10 (00:40) 4.44 (23:00) 1.6 0 0 1.6 0
27-12-2017 11 (14:00) 0.4 (00:00) 5.7 15.83 (11:10) 7.78 (14:40) 7.8 7.6 0.2 0 0
26-12-2017 5 (14:50) 1.5 (00:00) 3.3 2.78 (15:40) 1.67 (15:40) 0.8 0.2 0.2 0 0.4
25-12-2017 6.8 (16:20) -0.4 (00:00) 3.2 2.78 (17:40) 1.39 (03:30) 0 0 0 0 0
24-12-2017 3.7 (14:40) -0.7 (-00:0) 1.5 3.06 (14:40) 1.67 (01:40) 0 0 0 0 0
23-12-2017 5.6 (15:50) -3.6 (-00:0) 1 2.5 (16:20) 1.67 (01:10) 0 0 0 0 0
22-12-2017 5.3 (13:30) -2.8 (-00:0) 1.3 3.33 (14:50) 2.22 (15:00) 0 0 0 0 0

Gráficas

Temp. máximas Temp. mínimas Temp. medias Precipitaciones Rachas de viento máximas Velocidades máximas media en intervalos de 10 minutos

Datos horarios

Fecha y hora oficial Temperatura (ºC) Velocidad del viento (km/h) Dirección del viento Racha (km/h) Dirección de racha Precipitación (mm) Presión (hPa) Tendencia (hPa) Humedad (%)
2018-01-20 23:00:00 12.1 11 Oeste 30 Oeste 0 -- -- 72
2018-01-20 22:00:00 13 14 Oeste 36 Oeste 0 -- -- 69
2018-01-20 21:00:00 12.2 13 Oeste 37 Oeste 0 -- -- 72
2018-01-20 20:00:00 12.2 12 Oeste 45 Sudoeste 0 -- -- 67
2018-01-20 19:00:00 12.8 12 Oeste 33 Oeste 0 -- -- 64
2018-01-20 18:00:00 14 14 Oeste 47 Noroeste 0 -- -- 61
2018-01-20 17:00:00 15.3 17 Oeste 52 Sudoeste 0 -- -- 55
2018-01-20 16:00:00 16.7 14 Oeste 40 Sudoeste 0 -- -- 48
2018-01-20 15:00:00 16.1 15 Oeste 36 Oeste 0 -- -- 44
2018-01-20 14:00:00 15.6 11 Sudoeste 33 Oeste 0 -- -- 47
2018-01-20 13:00:00 13.8 19 Oeste 43 Oeste 0 -- -- 50
2018-01-20 12:00:00 12.7 14 Oeste 36 Sudoeste 0 -- -- 53
2018-01-20 11:00:00 8.4 3 Sur 8 Sudeste 0 -- -- 72
2018-01-20 10:00:00 3.2 3 Sur 7 Sudoeste 0 -- -- 87
2018-01-20 09:00:00 -0.5 2 Sur 12 Sudoeste 0 -- -- 96
2018-01-20 08:00:00 -1 4 Norte 6 Nordeste 0 -- -- 94
2018-01-20 07:00:00 -0.8 0 Calma 6 Norte 0 -- -- 92
2018-01-20 06:00:00 -0.1 3 Sudeste 11 Sudeste 0 -- -- 92
2018-01-20 05:00:00 0 5 Este 14 Sudeste 0 -- -- 93
2018-01-20 04:00:00 0.3 2 Sur 10 Noroeste 0 -- -- 89
2018-01-20 03:00:00 1.4 0 Calma 4 Nordeste 0 -- -- 86
2018-01-20 02:00:00 3.2 2 Sudeste 9 Norte 0 -- -- 81
2018-01-20 01:00:00 6.4 5 Noroeste 17 Noroeste 0 -- -- 73
2018-01-20 00:00:00 7.6 10 Noroeste 21 Oeste 0 -- -- 72
2018-01-19 23:00:00 7.9 11 Oeste 21 Oeste 0 -- -- 64
2018-01-19 22:00:00 7 7 Oeste 15 Noroeste 0 -- -- 64
2018-01-19 21:00:00 8.4 5 Oeste 15 Noroeste 0 -- -- 61
2018-01-19 20:00:00 9.9 2 Sudeste 29 Oeste 0 -- -- 58
2018-01-19 19:00:00 11 12 Oeste 34 Oeste 0 -- -- 56
2018-01-19 18:00:00 10.4 6 Noroeste 21 Oeste 0 -- -- 65
2018-01-19 17:00:00 12.6 4 Sudeste 13 Este 0 -- -- 60
2018-01-19 16:00:00 12.5 6 Sudeste 14 Este 0 -- -- 61
2018-01-19 15:00:00 11.7 5 Sudeste 14 Sudeste 0 -- -- 63
2018-01-19 14:00:00 10.6 6 Sudeste 11 Este 0 -- -- 66
2018-01-19 13:00:00 9.1 8 Sudeste 17 Este 0 -- -- 70
2018-01-19 12:00:00 7.2 8 Sudeste 13 Sudeste 0 -- -- 77
2018-01-19 11:00:00 4.3 2 Este 6 Noroeste 0 -- -- 86
2018-01-19 10:00:00 0.1 4 Noroeste 8 Noroeste 0 -- -- 97
2018-01-19 09:00:00 -1.6 4 Noroeste 8 Noroeste 0 -- -- 97
2018-01-19 08:00:00 -1.9 2 Noroeste 5 Oeste 0 -- -- 95
2018-01-19 07:00:00 -1.7 2 Oeste 5 Noroeste 0 -- -- 95
2018-01-19 06:00:00 -1.3 4 Oeste 7 Oeste 0 -- -- 94
2018-01-19 05:00:00 -0.4 2 Oeste 12 Noroeste 0 -- -- 94
2018-01-19 04:00:00 -0.3 5 Noroeste 10 Noroeste 0 -- -- 97
2018-01-19 03:00:00 -0.7 2 Noroeste 5 Noroeste 0 -- -- 94
2018-01-19 02:00:00 0 0 Calma 6 Noroeste 0 -- -- 92
2018-01-19 01:00:00 0.7 3 Noroeste 11 Noroeste 0 -- -- 93
2018-01-19 00:00:00 0.3 3 Noroeste 5 Noroeste 0 -- -- 93
2018-01-18 23:00:00 0.7 0 Calma 4 Noroeste 0 -- -- 88
2018-01-18 22:00:00 1.8 3 Norte 6 Noroeste 0 -- -- 89
2018-01-18 21:00:00 2.7 3 Oeste 5 Oeste 0 -- -- 86
2018-01-18 20:00:00 4 0 Calma 4 Oeste 0 -- -- 79
2018-01-18 19:00:00 6.2 0 Calma 4 Noroeste 0 -- -- 73
2018-01-18 18:00:00 -- -- -- -- -- -- -- -- --
2018-01-18 17:00:00 13.3 0 Calma 10 Oeste 0 -- -- 52
2018-01-18 16:00:00 12.1 4 Noroeste 14 Norte 0 -- -- 53
2018-01-18 15:00:00 11.6 5 Oeste 15 Oeste 0 -- -- 56
2018-01-18 14:00:00 10.4 3 Noroeste 10 Este 0 -- -- 60
2018-01-18 13:00:00 9.3 6 Sudeste 15 Este 0 -- -- 62
2018-01-18 12:00:00 8.3 6 Sudeste 11 Sudeste 0 -- -- 64
2018-01-18 11:00:00 6.2 3 Sudeste 6 Noroeste 0 -- -- 70
2018-01-18 10:00:00 2 2 Noroeste 5 Noroeste 0 -- -- 87
2018-01-18 09:00:00 -2 0 Calma 7 Oeste 0 -- -- 94
2018-01-18 08:00:00 -1.9 0 Calma 9 Noroeste 0 -- -- 91
2018-01-18 07:00:00 -1.4 4 Noroeste 9 Noroeste 0 -- -- 94
2018-01-18 06:00:00 -1.7 2 Noroeste 5 Noroeste 0 -- -- 93
2018-01-18 05:00:00 -1.4 3 Oeste 6 Noroeste 0 -- -- 93
2018-01-18 04:00:00 -1 -- -- -- -- 0 -- -- 90
2018-01-18 03:00:00 -0.5 0 Calma 9 Noroeste 0 -- -- 89
2018-01-18 02:00:00 -0.1 5 Noroeste 8 Oeste 0 -- -- 89
2018-01-18 01:00:00 0.5 4 Noroeste 5 Oeste 0 -- -- 87
2018-01-18 00:00:00 1.6 3 Noroeste 8 Noroeste 0 -- -- 83
2018-01-17 23:00:00 2.5 5 Noroeste 8 Noroeste 0 -- -- 80
2018-01-17 22:00:00 3.7 0 Calma 9 Oeste 0 -- -- 76
2018-01-17 21:00:00 5.8 0 Calma 12 Noroeste 0 -- -- 68
2018-01-17 20:00:00 8.4 5 Noroeste 26 Oeste 0 -- -- 60
2018-01-17 19:00:00 9.7 13 Oeste 39 Oeste 0 -- -- 57
2018-01-17 18:00:00 11.1 13 Oeste 41 Oeste 0 -- -- 52
2018-01-17 17:00:00 13 14 Oeste 41 Oeste 0 -- -- 46
2018-01-17 16:00:00 14.5 16 Oeste 45 Oeste 0 -- -- 41
2018-01-17 15:00:00 14.7 21 Oeste 47 Oeste 0 -- -- 37
2018-01-17 14:00:00 14.5 21 Oeste 43 Sudoeste 0 -- -- 40
2018-01-17 13:00:00 15 18 Oeste 53 Oeste 0 -- -- 44
2018-01-17 12:00:00 14.4 21 Oeste 43 Sudoeste 0 -- -- 46
2018-01-17 11:00:00 13.4 17 Oeste 46 Sudoeste 0 -- -- 45
2018-01-17 10:00:00 12.1 16 Oeste 44 Noroeste 0 -- -- 53
2018-01-17 09:00:00 10.8 19 Oeste 50 Oeste 0 -- -- 55
2018-01-17 08:00:00 11 26 Oeste 58 Oeste 0 -- -- 58
2018-01-17 07:00:00 11.4 16 Oeste 45 Sudoeste 0 -- -- 59
2018-01-17 06:00:00 11.4 14 Oeste 33 Sudoeste 0 -- -- 60
2018-01-17 05:00:00 10.5 14 Oeste 35 Oeste 0 -- -- 74
2018-01-17 04:00:00 9.9 11 Noroeste 40 Oeste 0 -- -- 80
2018-01-17 03:00:00 9.7 18 Oeste 41 Sudoeste 0 -- -- 81
2018-01-17 02:00:00 10.2 22 Oeste 52 Oeste 0 -- -- 79
2018-01-17 01:00:00 11.3 13 Oeste 30 Oeste 0 -- -- 75
2018-01-17 00:00:00 10 8 Noroeste 28 Oeste 0 -- -- 77
2018-01-16 23:00:00 10.9 14 Oeste 36 Oeste 0 -- -- 74
2018-01-16 22:00:00 10.3 10 Oeste 26 Oeste 0 -- -- 77
2018-01-16 21:00:00 11 13 Noroeste 30 Oeste 0 -- -- 76
2018-01-16 20:00:00 11.5 13 Oeste 46 Sudoeste 0 -- -- 74
2018-01-16 19:00:00 12 23 Oeste 50 Oeste 0 -- -- 72
2018-01-16 18:00:00 12.8 23 Oeste 49 Oeste 0 -- -- 70
2018-01-16 17:00:00 14.3 21 Oeste 59 Oeste 0 -- -- 64
2018-01-16 16:00:00 15.3 22 Oeste 52 Oeste 0 -- -- 61
2018-01-16 15:00:00 15.5 15 Oeste 51 Oeste 0 -- -- 60
2018-01-16 14:00:00 15.1 13 Oeste 39 Oeste 0 -- -- 60
2018-01-16 13:00:00 14.5 14 Oeste 42 Sudoeste 0 -- -- 61
2018-01-16 12:00:00 12.6 11 Oeste 24 Oeste 0 -- -- 67
2018-01-16 11:00:00 9.9 8 Sur 16 Sudoeste 0 -- -- 73
2018-01-16 10:00:00 4.3 4 Sudeste 12 Sudeste 0 -- -- 95
2018-01-16 09:00:00 1.2 4 Este 18 Este 0 -- -- 100
2018-01-16 08:00:00 0.4 7 Este 14 Sudoeste 0 -- -- 100
2018-01-16 07:00:00 -0.1 4 Nordeste 11 Nordeste 0 -- -- 100
2018-01-16 06:00:00 -1.1 0 Calma 4 Norte 0 -- -- 98
2018-01-16 05:00:00 -0.6 0 Calma 3 Sudoeste 0 -- -- 99
2018-01-16 04:00:00 -0.2 0 Calma 4 Oeste 0 -- -- 99
2018-01-16 03:00:00 0.1 2 Noroeste 6 Sudoeste 0 -- -- 99
2018-01-16 02:00:00 0.7 2 Noroeste 5 Sudoeste 0 -- -- 99
2018-01-16 01:00:00 0.3 0 Calma 4 Noroeste 0 -- -- 99
2018-01-16 00:00:00 0.3 0 Calma 3 Noroeste 0 -- -- 97
2018-01-15 23:00:00 0.5 0 Calma 5 Oeste 0 -- -- 97
2018-01-15 22:00:00 0.7 0 Calma 4 Oeste 0 -- -- 94
2018-01-15 21:00:00 2 0 Calma 3 Oeste 0 -- -- 91
2018-01-15 20:00:00 3.2 0 Calma 3 Sudoeste 0 -- -- 92
2018-01-15 19:00:00 4 0 Calma 4 Noroeste 0 -- -- 88
2018-01-15 18:00:00 5.1 0 Calma 4 Sudeste 0 -- -- 84
2018-01-15 17:00:00 5.9 2 Sudeste 8 Sudeste 0 -- -- 82
2018-01-15 16:00:00 6.1 4 Sudeste 8 Sur 0 -- -- 80
2018-01-15 15:00:00 6.2 5 Sudeste 12 Sur 0 -- -- 80
2018-01-15 14:00:00 5.9 5 Sudeste 11 Sudeste 0 -- -- 83
2018-01-15 13:00:00 5.4 6 Este 13 Este 0 -- -- 82
2018-01-15 12:00:00 4.1 4 Sudeste 6 Sudeste 0 -- -- 88
2018-01-15 11:00:00 2.1 0 Calma 3 Este 0 -- -- 93
2018-01-15 10:00:00 -0.5 0 Calma 6 Noroeste 0 -- -- 95
2018-01-15 09:00:00 -0.8 3 Noroeste 8 Noroeste 0 -- -- 97
2018-01-15 08:00:00 -1.4 3 Norte 8 Noroeste 0 -- -- 99
2018-01-15 07:00:00 -2.5 3 Noroeste 5 Noroeste 0 -- -- 97
2018-01-15 06:00:00 -2.2 0 Calma 6 Noroeste 0 -- -- 97
2018-01-15 05:00:00 -1.9 0 Calma 8 Noroeste 0 -- -- 97
2018-01-15 04:00:00 -1.7 0 Calma 6 Noroeste 0 -- -- 97
2018-01-15 03:00:00 -1.4 0 Calma 9 Noroeste 0 -- -- 96
2018-01-15 02:00:00 -1 5 Noroeste 9 Norte 0 -- -- 98
2018-01-15 01:00:00 -0.6 4 Noroeste 6 Noroeste 0 -- -- 98
2018-01-15 00:00:00 -0.7 0 Calma 6 Noroeste 0 -- -- 96
2018-01-14 23:00:00 0.1 0 Calma 6 Noroeste 0 -- -- 94
2018-01-14 22:00:00 1.2 4 Noroeste 8 Noroeste 0 -- -- 95
2018-01-14 21:00:00 2.2 3 Noroeste 7 Oeste 0 -- -- 94
2018-01-14 20:00:00 3 2 Noroeste 5 Oeste 0 -- -- 92
2018-01-14 19:00:00 4.6 0 Calma 4 Sudoeste 0 -- -- 88
2018-01-14 18:00:00 6.7 2 Nordeste 5 Nordeste 0 -- -- 82
2018-01-14 17:00:00 9.1 3 Sur 5 Noroeste 0 -- -- 72
2018-01-14 16:00:00 9.2 3 Sudoeste 10 Oeste 0 -- -- 72
2018-01-14 15:00:00 8.5 0 Calma 12 Oeste 0 -- -- 73
2018-01-14 14:00:00 8.1 3 Noroeste 9 Sudoeste 0 -- -- 75
2018-01-14 13:00:00 7.4 4 Noroeste 12 Oeste 0 -- -- 81
2018-01-14 12:00:00 6.1 3 Sudeste 6 Este 0 -- -- 89
2018-01-14 11:00:00 5.8 2 Este 5 Sur 0 -- -- 88
2018-01-14 10:00:00 3.4 0 Calma 4 Oeste 0 -- -- 99
2018-01-14 09:00:00 1.8 0 Calma 4 Nordeste 0 -- -- 95
2018-01-14 08:00:00 2.9 0 Calma 0 Calma 0 -- -- 95
2018-01-14 07:00:00 3.8 0 Calma 3 Noroeste 0 -- -- 95
2018-01-14 06:00:00 4 0 Calma 9 Oeste 0.6 -- -- 93
2018-01-14 05:00:00 4.2 2 Noroeste 8 Oeste 0.4 -- -- 92
2018-01-14 04:00:00 4.4 3 Noroeste 9 Noroeste 0.2 -- -- 92
2018-01-14 03:00:00 4.5 6 Noroeste 22 Oeste 0.4 -- -- 90
2018-01-14 02:00:00 5.5 8 Oeste 20 Oeste 0.2 -- -- 90
2018-01-14 01:00:00 5.6 3 Oeste 10 Sudoeste 0.4 -- -- 93
2018-01-14 00:00:00 5.6 0 Calma 4 Norte 0.2 -- -- 88
2018-01-13 23:00:00 6.1 0 Calma 4 Norte 0 -- -- 79
2018-01-13 22:00:00 6.9 3 Oeste 7 Noroeste 0 -- -- 69
2018-01-13 21:00:00 7.5 5 Noroeste 15 Noroeste 0 -- -- 66
2018-01-13 20:00:00 7.6 3 Norte 10 Norte 0 -- -- 64
2018-01-13 19:00:00 8.1 3 Nordeste 12 Noroeste 0 -- -- 64
2018-01-13 18:00:00 9 6 Norte 10 Noroeste 0 -- -- 62
2018-01-13 17:00:00 9.7 3 Noroeste 14 Norte 0 -- -- 64
2018-01-13 16:00:00 9.3 5 Norte 9 Nordeste 0 -- -- 62
2018-01-13 15:00:00 9.2 0 Calma 9 Nordeste 0 -- -- 63
2018-01-13 14:00:00 9.2 6 Nordeste 12 Norte -- -- -- 59
2018-01-13 13:00:00 8.7 6 Norte 17 Nordeste 0 -- -- 54
2018-01-13 12:00:00 7.1 7 Norte 15 Norte 0 -- -- 56
2018-01-13 11:00:00 4.7 5 Noroeste 10 Noroeste 0 -- -- 68
2018-01-13 10:00:00 0.4 4 Noroeste 6 Noroeste 0 -- -- 92
2018-01-13 09:00:00 -1.3 3 Noroeste 4 Sudoeste 0 -- -- 95
2018-01-13 08:00:00 -2.1 0 Calma 5 Oeste 0 -- -- 94
2018-01-13 07:00:00 -1.4 2 Noroeste 5 Sudoeste 0 -- -- 91
2018-01-13 06:00:00 -1.1 2 Noroeste 6 Noroeste 0 -- -- 92
2018-01-13 05:00:00 -0.9 4 Noroeste 8 Noroeste 0 -- -- 94
2018-01-13 04:00:00 -1.8 5 Noroeste 8 Noroeste 0 -- -- 96
2018-01-13 03:00:00 -1.8 5 Noroeste 8 Noroeste 0 -- -- 97
2018-01-13 02:00:00 -1.5 0 Calma 5 Oeste 0 -- -- 94
2018-01-13 01:00:00 -1 2 Oeste 6 Norte 0 -- -- 96
2018-01-13 00:00:00 -0.6 0 Calma 6 Oeste 0 -- -- 96
2018-01-12 23:00:00 -0.9 0 Calma 5 Noroeste 0 -- -- 95
2018-01-12 22:00:00 -0.6 0 Calma 5 Oeste 0 -- -- 92
2018-01-12 21:00:00 0.5 0 Calma 7 Noroeste 0 -- -- 90
2018-01-12 20:00:00 1.2 0 Calma 5 Noroeste 0 -- -- 88
2018-01-12 19:00:00 2.9 0 Calma 4 Sudoeste 0 -- -- 83
2018-01-12 18:00:00 5.9 0 Calma 9 Sur 0 -- -- 74
2018-01-12 17:00:00 8.9 4 Sur 12 Sudeste 0 -- -- 66
2018-01-12 16:00:00 8.9 7 Sudeste 13 Sudeste 0 -- -- 66
2018-01-12 15:00:00 8 6 Sudeste 13 Sudeste 0 -- -- 66
2018-01-12 14:00:00 7 5 Sudeste 20 Sur 0 -- -- 69
2018-01-12 13:00:00 5.5 9 Sudeste 15 Sudeste 0 -- -- 77
2018-01-12 12:00:00 2 3 Sudeste 9 Sur 0 -- -- 98
2018-01-12 11:00:00 -0.7 2 Sudeste 8 Sudeste 0 -- -- 98
2018-01-12 10:00:00 -1.3 4 Sudeste 6 Este 0 -- -- 94
2018-01-12 09:00:00 -3.5 0 Calma 5 Oeste 0 -- -- 94
2018-01-12 08:00:00 -3.3 0 Calma 10 Noroeste 0 -- -- 92
2018-01-12 07:00:00 -3.2 0 Calma 5 Este 0 -- -- 94
2018-01-12 06:00:00 -2.9 2 Norte 6 Noroeste 0 -- -- 94
2018-01-12 05:00:00 -2.3 2 Noroeste 6 Noroeste 0 -- -- 93
2018-01-12 04:00:00 -1.8 2 Noroeste 8 Noroeste 0 -- -- 92
2018-01-12 03:00:00 -1.7 3 Noroeste 8 Noroeste 0 -- -- 92
2018-01-12 02:00:00 -1 3 Noroeste 6 Noroeste 0 -- -- 91
2018-01-12 01:00:00 -0.6 2 Nordeste 6 Oeste 0 -- -- 89
2018-01-12 00:00:00 0.8 0 Calma 6 Noroeste 0 -- -- 86
2018-01-11 23:00:00 1.8 4 Noroeste 8 Noroeste 0 -- -- 83
2018-01-11 22:00:00 4.1 3 Norte 16 Oeste 0 -- -- 75
2018-01-11 21:00:00 4.6 0 Calma 16 Oeste 0 -- -- 74
2018-01-11 20:00:00 5.6 9 Oeste 23 Oeste 0 -- -- 71
2018-01-11 19:00:00 6.5 9 Noroeste 31 Oeste 0 -- -- 67
2018-01-11 18:00:00 7.3 11 Oeste 32 Oeste 0 -- -- 63
2018-01-11 17:00:00 9.2 16 Oeste -- -- -- -- -- 57
2018-01-11 16:00:00 10.2 18 Oeste 35 Oeste 0 -- -- 53
2018-01-11 15:00:00 11.4 17 Oeste 43 Oeste 0 -- -- 51
2018-01-11 14:00:00 12.1 13 Oeste 32 Oeste 0 -- -- 49
2018-01-11 13:00:00 11.5 14 Oeste 31 Oeste 0 -- -- 48
2018-01-11 12:00:00 10 14 Oeste 36 Oeste 0 -- -- 57
2018-01-11 11:00:00 8.8 12 Oeste 30 Noroeste 0 -- -- 60
2018-01-11 10:00:00 6.6 7 Noroeste 15 Noroeste 0 -- -- 68
2018-01-11 09:00:00 2.4 3 Norte 18 Noroeste 0 -- -- 83
2018-01-11 08:00:00 3.8 11 Oeste 29 Oeste 0 -- -- 76
2018-01-11 07:00:00 3.9 15 Oeste 33 Sudoeste 0 -- -- 75
2018-01-11 06:00:00 3.8 8 Noroeste 30 Oeste 0 -- -- 76
2018-01-11 05:00:00 3.1 5 Sudeste 12 Sudoeste 0 -- -- 75
2018-01-11 04:00:00 5.6 9 Oeste 22 Oeste 0 -- -- 66
2018-01-11 03:00:00 4.8 4 Noroeste 14 Sudoeste 0 -- -- 74
2018-01-11 02:00:00 5.3 6 Noroeste 36 Oeste 0 -- -- 76
2018-01-11 01:00:00 5.9 17 Oeste 32 Oeste 0 -- -- 75
2018-01-11 00:00:00 3.8 0 Calma 5 Sudoeste 0 -- -- 92
2018-01-10 23:00:00 5.5 0 Calma 4 Nordeste 0 -- -- 91
2018-01-10 22:00:00 6.8 0 Calma 3 Sur 0 -- -- 91
2018-01-10 21:00:00 7.3 0 Calma 10 Noroeste 0.2 -- -- 85
2018-01-10 20:00:00 7.8 5 Noroeste 10 Sudoeste 0 -- -- 79
2018-01-10 19:00:00 8 0 Calma 9 Oeste 0 -- -- 77
2018-01-10 18:00:00 9 4 Oeste 13 Oeste 0 -- -- 70
2018-01-10 17:00:00 10.1 5 Oeste 23 Oeste 0 -- -- 63
2018-01-10 16:00:00 11.9 18 Oeste 36 Oeste 0 -- -- 55
2018-01-10 15:00:00 11.8 9 Sudoeste 19 Sudoeste 0 -- -- 61
2018-01-10 14:00:00 11.2 8 Oeste 17 Sudoeste 0 -- -- 61
2018-01-10 13:00:00 10.2 6 Sur 11 Este 0 -- -- 63
2018-01-10 12:00:00 8.8 3 Oeste 8 Sudeste 0 -- -- 67
2018-01-10 11:00:00 6.3 3 Oeste 6 Oeste 0 -- -- 78
2018-01-10 10:00:00 2.7 3 Noroeste 5 Norte 0 -- -- 94
2018-01-10 09:00:00 -0.6 0 Calma 4 Oeste 0 -- -- 97
2018-01-10 08:00:00 0.1 2 Noroeste 5 Oeste 0 -- -- 96
2018-01-10 07:00:00 0.9 0 Calma 4 Noroeste 0 -- -- 95
2018-01-10 06:00:00 2.1 2 Noroeste 4 Noroeste 0 -- -- 95
2018-01-10 05:00:00 3.6 0 Calma 2 Sudoeste 0 -- -- 97
2018-01-10 04:00:00 3.7 0 Calma 2 Norte 0 -- -- 97
2018-01-10 03:00:00 3.6 0 Calma 3 Nordeste -- -- -- 97
2018-01-10 02:00:00 3.5 0 Calma -- -- 0 -- -- 97
2018-01-10 01:00:00 3.4 0 Calma 4 Noroeste 0 -- -- 96
2018-01-10 00:00:00 3.1 0 Calma 5 Este 0 -- -- 97
2018-01-09 23:00:00 3.1 2 Sudeste 8 Sudeste 0 -- -- 96
2018-01-09 22:00:00 3.2 0 Calma 16 Sudoeste 0 -- -- 96
2018-01-09 21:00:00 2.4 3 Sudeste 5 Sudeste 0 -- -- 97
2018-01-09 20:00:00 2.5 0 Calma 4 Sur 0 -- -- 92
2018-01-09 19:00:00 3.1 0 Calma 3 Este 0 -- -- 88
2018-01-09 18:00:00 5.1 0 Calma 3 Este 0 -- -- 83
2018-01-09 17:00:00 6.6 0 Calma 10 Sur 0 -- -- 76
2018-01-09 16:00:00 8 5 Sudeste 9 Sur 0 -- -- 70
2018-01-09 15:00:00 7.8 5 Sudeste 13 Este 0 -- -- 72
2018-01-09 14:00:00 7.6 6 Sur 13 Sudoeste 0 -- -- 74
2018-01-09 13:00:00 8.2 5 Sudeste 10 Sur 0 -- -- 68
2018-01-09 12:00:00 6.5 3 Nordeste 13 Norte 0 -- -- 71
2018-01-09 11:00:00 5 8 Norte 14 Norte 0 -- -- 77
2018-01-09 10:00:00 3.6 3 Norte 15 Norte 0 -- -- 86
2018-01-09 09:00:00 2.4 4 Noroeste 11 Noroeste 0 -- -- 89
2018-01-09 08:00:00 2.7 5 Norte 8 Norte 0 -- -- 89
2018-01-09 07:00:00 2.8 3 Norte 8 Noroeste 0 -- -- 91
2018-01-09 06:00:00 3.1 3 Noroeste 7 Norte 0 -- -- 86
2018-01-09 05:00:00 3 2 Norte 5 Norte 0 -- -- 94
2018-01-09 04:00:00 3.2 2 Noroeste 5 Oeste 0 -- -- 92
2018-01-09 03:00:00 3.7 2 Este 5 Nordeste 0 -- -- 91
2018-01-09 02:00:00 4 2 Nordeste 9 Norte 0 -- -- 91
2018-01-09 01:00:00 4.2 5 Nordeste 10 Nordeste 0 -- -- 91
2018-01-09 00:00:00 4.5 4 Nordeste 8 Norte 0 -- -- 91
2018-01-08 23:00:00 4.6 0 Calma 8 Norte 0 -- -- 90
2018-01-08 22:00:00 4.8 2 Nordeste 6 Nordeste 0 -- -- 90
2018-01-08 21:00:00 4.9 4 Nordeste 8 Oeste 0 -- -- 91
2018-01-08 20:00:00 4.9 2 Sudoeste 5 Sudoeste 0 -- -- 91
2018-01-08 19:00:00 4.9 0 Calma 14 Oeste 0 -- -- 89
2018-01-08 18:00:00 5.1 5 Oeste 11 Oeste 0 -- -- 89
2018-01-08 17:00:00 5.3 4 Noroeste 9 Noroeste 0 -- -- 87
2018-01-08 16:00:00 5.3 5 Noroeste 15 Oeste 0 -- -- 88
2018-01-08 15:00:00 5.2 4 Oeste 15 Oeste 0 -- -- 90
2018-01-08 14:00:00 4.3 3 Sur 13 Sudoeste 0 -- -- 96
2018-01-08 13:00:00 3.1 3 Norte 12 Norte 0 -- -- 100
2018-01-08 12:00:00 2.4 6 Noroeste 13 Norte 0 -- -- 100
2018-01-08 11:00:00 2 2 Noroeste 5 Norte 0 -- -- 100
2018-01-08 10:00:00 0.6 0 Calma 6 Nordeste 0 -- -- 100
2018-01-08 09:00:00 -0.7 0 Calma 8 Norte 0 -- -- 100
2018-01-08 08:00:00 -0.6 0 Calma 5 Este 0 -- -- 100
2018-01-08 07:00:00 0 0 Calma 6 Noroeste 0 -- -- 99
2018-01-08 06:00:00 0.4 0 Calma 8 Noroeste 0 -- -- 99
2018-01-08 05:00:00 0.4 4 Oeste 5 Noroeste 0 -- -- 99
2018-01-08 04:00:00 0.5 0 Calma 4 Oeste 0 -- -- 98
2018-01-08 03:00:00 1 0 Calma 2 Oeste 0 -- -- 97
2018-01-08 02:00:00 1.9 0 Calma 4 Noroeste 0 -- -- 98
2018-01-08 01:00:00 3.1 0 Calma 4 Noroeste 0 -- -- 99
2018-01-08 00:00:00 3.3 0 Calma 4 Noroeste 0 -- -- 99
2018-01-07 23:00:00 3.5 3 Noroeste 4 Oeste 0 -- -- 98
2018-01-07 22:00:00 3.9 0 Calma 4 Nordeste 0.2 -- -- 96
2018-01-07 21:00:00 4.6 0 Calma 5 Noroeste 0 -- -- 95
2018-01-07 20:00:00 5.2 0 Calma 5 Noroeste 0 -- -- 94
2018-01-07 19:00:00 6 3 Oeste 5 Oeste 0 -- -- 92
2018-01-07 18:00:00 7.4 0 Calma 9 Nordeste 0 -- -- 87
2018-01-07 17:00:00 8.6 2 Norte 10 Nordeste 0 -- -- 81
2018-01-07 16:00:00 9 7 Norte 15 Nordeste 0 -- -- 80
2018-01-07 15:00:00 9.2 2 Sudoeste 9 Norte 0 -- -- 88
2018-01-07 14:00:00 9.1 2 Este 15 Sudeste 0 -- -- 86
2018-01-07 13:00:00 8.8 9 Sur 15 Sur 0 -- -- 87
2018-01-07 12:00:00 7.8 4 Norte 10 Nordeste 0 -- -- 98
2018-01-07 11:00:00 6.1 0 Calma 10 Sur 0.8 -- -- 99
2018-01-07 10:00:00 5.5 10 Sur 19 Sur 0 -- -- 96
2018-01-07 09:00:00 6.9 0 Calma 9 Sudeste 0 -- -- 94
2018-01-07 08:00:00 8.4 3 Nordeste 13 Norte 0.2 -- -- 88
2018-01-07 07:00:00 9 6 Norte 14 Nordeste 0 -- -- 87
2018-01-07 06:00:00 8.9 5 Norte 21 Este 0 -- -- 87
2018-01-07 05:00:00 8.9 9 Este 23 Nordeste 1.8 -- -- 87
2018-01-07 04:00:00 8.2 6 Este 15 Norte 1.8 -- -- 97
2018-01-07 03:00:00 8.5 3 Este 23 Sudeste 0.2 -- -- 93
2018-01-07 02:00:00 8 2 Noroeste 10 Noroeste 0 -- -- 96
2018-01-07 01:00:00 8.3 3 Este 12 Este 0 -- -- 93
2018-01-07 00:00:00 9 8 Sudeste 38 Este 6.8 -- -- 91
2018-01-06 23:00:00 10.8 18 Sur 36 Sur 1.4 -- -- 76
2018-01-06 22:00:00 13.1 13 Este 33 Este 0 -- -- 62
2018-01-06 21:00:00 13.2 15 Este 31 Nordeste 0 -- -- 58
2018-01-06 20:00:00 12 8 Nordeste 18 Nordeste 0 -- -- 63
2018-01-06 19:00:00 11.6 0 Calma 12 Norte 0.2 -- -- 74
2018-01-06 18:00:00 12.5 8 Norte 15 Norte 0 -- -- 62
2018-01-06 17:00:00 12.6 7 Nordeste 27 Nordeste 0 -- -- 63
2018-01-06 16:00:00 12.5 8 Este 21 Este 0 -- -- 67
2018-01-06 15:00:00 12.3 8 Este 25 Sudeste 0 -- -- 66
2018-01-06 14:00:00 12.8 9 Sudeste 22 Este 0 -- -- 66
2018-01-06 13:00:00 12 6 Este 14 Nordeste 0 -- -- 70
2018-01-06 12:00:00 10.3 0 Calma 6 Norte 0 -- -- 74
2018-01-06 11:00:00 9.4 0 Calma 7 Noroeste 0 -- -- 80
2018-01-06 10:00:00 8.3 0 Calma 6 Oeste 0 -- -- 90
2018-01-06 09:00:00 7.6 0 Calma 3 Sudeste 0 -- -- 93
2018-01-06 08:00:00 7.8 0 Calma 4 Noroeste 0 -- -- 92
2018-01-06 07:00:00 7.9 3 Oeste 8 Noroeste 0 -- -- 91
2018-01-06 06:00:00 7.8 2 Sudoeste 5 Oeste 0 -- -- 92
2018-01-06 05:00:00 8.2 0 Calma 7 Este 0 -- -- 91
2018-01-06 04:00:00 8.3 2 Sur 6 Sudeste 0 -- -- 91
2018-01-06 03:00:00 8.5 0 Calma 5 Noroeste 0 -- -- 91
2018-01-06 02:00:00 8.9 0 Calma 6 Oeste 0 -- -- 89
2018-01-06 01:00:00 9 3 Noroeste 6 Noroeste 0 -- -- 88
2018-01-06 00:00:00 9.5 3 Noroeste 6 Noroeste 0 -- -- 82
2018-01-05 23:00:00 9.6 0 Calma 3 Oeste 0 -- -- 78
2018-01-05 22:00:00 9.9 0 Calma 6 Norte 0 -- -- 76
2018-01-05 21:00:00 10.1 0 Calma 6 Noroeste 0 -- -- 74
2018-01-05 20:00:00 10.4 3 Noroeste 8 Norte 0 -- -- 72
2018-01-05 19:00:00 11 3 Oeste 5 Sudoeste 0 -- -- 66
2018-01-05 18:00:00 13.4 3 Noroeste 8 Oeste 0 -- -- 57
2018-01-05 17:00:00 15.4 3 Oeste 15 Sudoeste 0 -- -- 47
2018-01-05 16:00:00 16.8 4 Oeste 20 Oeste 0 -- -- 46
2018-01-05 15:00:00 16.7 7 Oeste 21 Sudoeste 0 -- -- 48
2018-01-05 14:00:00 16.2 7 Oeste 20 Sudoeste 0 -- -- 50
2018-01-05 13:00:00 15.2 11 Sudoeste 20 Sudoeste 0 -- -- 56
2018-01-05 12:00:00 12.4 3 Este 6 Sudeste 0 -- -- 69
2018-01-05 11:00:00 8.6 3 Noroeste 8 Noroeste 0 -- -- 83
2018-01-05 10:00:00 4.9 3 Oeste 6 Oeste 0 -- -- 95
2018-01-05 09:00:00 2 0 Calma 5 Noroeste 0 -- -- 97
2018-01-05 08:00:00 1.8 0 Calma 6 Noroeste 0 -- -- 96
2018-01-05 07:00:00 2.2 0 Calma 5 Noroeste 0 -- -- 95
2018-01-05 06:00:00 2.7 3 Noroeste 8 Noroeste 0 -- -- 93
2018-01-05 05:00:00 3.2 4 Noroeste 6 Noroeste 0 -- -- 94
2018-01-05 04:00:00 3.8 5 Noroeste 7 Noroeste 0 -- -- 94
2018-01-05 03:00:00 4.3 0 Calma 4 Noroeste 0 -- -- 90
2018-01-05 02:00:00 5.3 0 Calma 7 Noroeste 0 -- -- 91
2018-01-05 01:00:00 6.4 2 Norte 6 Oeste 0 -- -- 86
2018-01-05 00:00:00 7.8 0 Calma 8 Sudoeste 0 -- -- 85
2018-01-04 23:00:00 8.5 4 Sudeste 8 Sur 0 -- -- 83
2018-01-04 22:00:00 10.2 3 Este 10 Sur 0 -- -- 79
2018-01-04 21:00:00 12.2 4 Este 26 Oeste 0 -- -- 72
2018-01-04 20:00:00 13.9 14 Oeste 28 Oeste 0 -- -- 69
2018-01-04 19:00:00 14.3 5 Sudoeste 24 Sudoeste 0 -- -- 65
2018-01-04 18:00:00 15.7 7 Oeste 28 Oeste 0 -- -- 60
2018-01-04 17:00:00 17.5 13 Oeste 37 Oeste 0 -- -- 54
2018-01-04 16:00:00 18.5 17 Oeste 37 Oeste 0 -- -- 49
2018-01-04 15:00:00 19.5 16 Oeste 40 Sudoeste 0 -- -- 46
2018-01-04 14:00:00 19.7 15 Oeste 39 Oeste 0 -- -- 46
2018-01-04 13:00:00 19 13 Oeste 37 Oeste 0 -- -- 53
2018-01-04 12:00:00 17.9 14 Oeste 35 Oeste 0 -- -- 56
2018-01-04 11:00:00 16.6 10 Oeste 24 Noroeste 0 -- -- 63
2018-01-04 10:00:00 14.1 4 Noroeste 13 Sudoeste 0 -- -- 72
2018-01-04 09:00:00 11.2 4 Noroeste 16 Oeste 0 -- -- 84
2018-01-04 08:00:00 11.4 4 Noroeste 24 Oeste 0 -- -- 84
2018-01-04 07:00:00 10.6 0 Calma 13 Oeste 0 -- -- 85
2018-01-04 06:00:00 11.4 4 Nordeste 14 Nordeste 0 -- -- 86
2018-01-04 05:00:00 12.5 4 Sudeste 12 Sudeste 0 -- -- 80
2018-01-04 04:00:00 13.3 6 Sudeste 26 Noroeste 0 -- -- 78
2018-01-04 03:00:00 14.8 15 Noroeste 32 Noroeste 0 -- -- 74
2018-01-04 02:00:00 14.9 0 Calma 32 Oeste 0 -- -- 70
2018-01-04 01:00:00 16 13 Oeste 47 Oeste 0 -- -- 69
2018-01-04 00:00:00 16 18 Oeste 47 Sudoeste 0 -- -- 69
2018-01-03 23:00:00 16 19 Oeste 40 Oeste 0 -- -- 70
2018-01-03 22:00:00 15.9 17 Oeste 40 Oeste 0 -- -- 68
2018-01-03 21:00:00 15.8 14 Oeste 39 Sudoeste 0 -- -- 68
2018-01-03 20:00:00 15.5 12 Oeste 34 Oeste 0 -- -- 71
2018-01-03 19:00:00 15.5 13 Oeste 31 Sudoeste 0 -- -- 73
2018-01-03 18:00:00 16.4 12 Oeste 31 Sudoeste 0 -- -- 68
2018-01-03 17:00:00 18.6 13 Oeste 34 Oeste 0 -- -- 50
2018-01-03 16:00:00 20.1 15 Oeste 39 Oeste 0 -- -- 42
2018-01-03 15:00:00 20.4 19 Oeste 45 Oeste 0 -- -- 42
2018-01-03 14:00:00 20.4 18 Oeste 42 Oeste 0 -- -- 43
2018-01-03 13:00:00 20 16 Oeste 50 Oeste 0 -- -- 50
2018-01-03 12:00:00 18.1 18 Oeste 45 Oeste 0 -- -- 64
2018-01-03 11:00:00 15.6 15 Oeste 41 Sudoeste 0 -- -- 73
2018-01-03 10:00:00 13.9 16 Oeste 36 Sudoeste 0 -- -- 79
2018-01-03 09:00:00 8.5 3 Sudeste 7 Sudeste 0 -- -- 93
2018-01-03 08:00:00 10.1 3 Sudeste 15 Oeste 0 -- -- 87
2018-01-03 07:00:00 11.5 12 Oeste 24 Oeste 0 -- -- 85
2018-01-03 06:00:00 8.3 0 Calma 9 Sudeste 0 -- -- 94
2018-01-03 05:00:00 9.1 0 Calma 13 Norte 0 -- -- 87
2018-01-03 04:00:00 11.3 6 Norte 26 Oeste 0 -- -- 84
2018-01-03 03:00:00 8.4 3 Este 12 Nordeste 0 -- -- 97
2018-01-03 02:00:00 8.1 4 Oeste 12 Noroeste 0 -- -- 100
2018-01-03 01:00:00 6.9 0 Calma 8 Noroeste 0 -- -- 94
2018-01-03 00:00:00 8.1 3 Sudeste 9 Norte 0 -- -- 92
2018-01-02 23:00:00 10 3 Noroeste 9 Norte 0 -- -- 83
2018-01-02 22:00:00 13 3 Noroeste 40 Noroeste 0 -- -- 77
2018-01-02 21:00:00 13.9 28 Oeste 48 Oeste 0 -- -- 75
2018-01-02 20:00:00 12.5 10 Noroeste 23 Noroeste 0 -- -- 79
2018-01-02 19:00:00 11.9 5 Oeste 14 Oeste 0 -- -- 80
2018-01-02 18:00:00 12.8 5 Oeste 32 Oeste 0 -- -- 75
2018-01-02 17:00:00 14.2 15 Oeste 43 Sudoeste 0 -- -- 69
2018-01-02 16:00:00 16 17 Oeste 44 Oeste 0 -- -- 63
2018-01-02 15:00:00 16.7 15 Oeste 41 Oeste 0 -- -- 61
2018-01-02 14:00:00 16.3 21 Oeste 41 Oeste 0 -- -- 60
2018-01-02 13:00:00 16 10 Oeste 28 Oeste 0 -- -- 60
2018-01-02 12:00:00 13.6 7 Noroeste 23 Noroeste 0 -- -- 65
2018-01-02 11:00:00 11.3 12 Noroeste 25 Noroeste 0 -- -- 71
2018-01-02 10:00:00 9.3 9 Norte 18 Noroeste 0 -- -- 76
2018-01-02 09:00:00 7.1 9 Noroeste 18 Oeste 0 -- -- 85
2018-01-02 08:00:00 4.9 2 Este 10 Este 0 -- -- 84
2018-01-02 07:00:00 7.6 5 Noroeste 14 Noroeste 0 -- -- 76
2018-01-02 06:00:00 7.8 4 Norte 17 Oeste 0 -- -- 72
2018-01-02 05:00:00 8.2 8 Noroeste 29 Oeste 0 -- -- 68
2018-01-02 04:00:00 8.7 9 Oeste 33 Oeste 0 -- -- 66
2018-01-02 03:00:00 8.8 12 Oeste 35 Oeste 0 -- -- 67
2018-01-02 02:00:00 8.2 7 Oeste 25 Sudoeste 0 -- -- 73
2018-01-02 01:00:00 7.7 8 Sudoeste 18 Sudoeste 0 -- -- 77
2018-01-02 00:00:00 6.9 3 Sudeste 17 Noroeste 0 -- -- 86
2018-01-01 23:00:00 5 6 Oeste 14 Oeste 0 -- -- 95
2018-01-01 22:00:00 5 4 Noroeste 9 Sudoeste 0 -- -- 96
2018-01-01 21:00:00 5.9 2 Oeste 8 Noroeste 0 -- -- 86
2018-01-01 20:00:00 7.1 5 Oeste 14 Oeste 0.2 -- -- 85
2018-01-01 19:00:00 8.3 0 Calma 5 Oeste 0 -- -- 84
2018-01-01 18:00:00 9.7 0 Calma 8 Oeste 0 -- -- 68
2018-01-01 17:00:00 10.6 4 Sur 10 Sur 0 -- -- 60
2018-01-01 16:00:00 11.5 6 Oeste 16 Oeste 0 -- -- 56
2018-01-01 15:00:00 11.1 8 Oeste 28 Oeste 0 -- -- 55
2018-01-01 14:00:00 12.1 10 Oeste 24 Oeste 0 -- -- 50
2018-01-01 13:00:00 11.7 10 Oeste 22 Oeste 0 -- -- 52
2018-01-01 12:00:00 9.7 6 Noroeste 17 Noroeste 0 -- -- 59
2018-01-01 11:00:00 8 9 Noroeste 22 Oeste 0 -- -- 64
2018-01-01 10:00:00 6.3 4 Oeste 15 Noroeste 0 -- -- 69
2018-01-01 09:00:00 2.7 0 Calma 10 Este 0 -- -- 81
2018-01-01 08:00:00 4 4 Norte 19 Norte 0 -- -- 75
2018-01-01 07:00:00 4.3 0 Calma 38 Oeste 0 -- -- 74
2018-01-01 06:00:00 5.4 20 Oeste 41 Sudoeste 0 -- -- 72
2018-01-01 05:00:00 6.6 14 Oeste 40 Oeste 0 -- -- 67
2018-01-01 04:00:00 7.1 12 Oeste 31 Oeste 0 -- -- 64
2018-01-01 03:00:00 5.2 0 Calma 18 Noroeste 0 -- -- 72
2018-01-01 02:00:00 7.4 11 Noroeste 34 Noroeste 0 -- -- 64
2018-01-01 01:00:00 7.4 13 Oeste 40 Oeste 0 -- -- 67
2018-01-01 00:00:00 7.4 10 Oeste 30 Oeste 0 -- -- 63
2017-12-31 23:00:00 8 9 Noroeste 18 Noroeste 0 -- -- 72
2017-12-31 22:00:00 8.4 3 Oeste 31 Noroeste 0.2 -- -- 90
2017-12-31 21:00:00 6.5 0 Calma 7 Noroeste 0 -- -- 95
2017-12-31 20:00:00 6.2 4 Noroeste 6 Noroeste 0 -- -- 94
2017-12-31 19:00:00 6.4 0 Calma 7 Noroeste 0 -- -- 88
2017-12-31 18:00:00 8 3 Oeste 6 Norte 0 -- -- 86
2017-12-31 17:00:00 9.9 0 Calma 2 Sudeste 0 -- -- 81
2017-12-31 16:00:00 10.3 0 Calma 4 Noroeste 0 -- -- 78
2017-12-31 15:00:00 10 0 Calma 3 Nordeste 0 -- -- 78
2017-12-31 14:00:00 9.4 0 Calma 6 Norte 0 -- -- 82
2017-12-31 13:00:00 8.3 3 Noroeste 8 Oeste 0 -- -- 89
2017-12-31 12:00:00 6.8 4 Noroeste 8 Oeste 0 -- -- 91
2017-12-31 11:00:00 5.3 2 Noroeste 7 Oeste 0 -- -- 99
2017-12-31 10:00:00 2.7 0 Calma 6 Oeste 0 -- -- 100
2017-12-31 09:00:00 1.5 0 Calma 5 Noroeste 0 -- -- 99
2017-12-31 08:00:00 1.6 4 Noroeste 9 Noroeste 0 -- -- 99
2017-12-31 07:00:00 1.5 4 Oeste 8 Noroeste 0 -- -- 98
2017-12-31 06:00:00 1.4 3 Noroeste 7 Noroeste 0 -- -- 99
2017-12-31 05:00:00 1.7 0 Calma 8 Noroeste 0 -- -- 97
2017-12-31 04:00:00 2 4 Noroeste 9 Noroeste 0 -- -- 97
2017-12-31 03:00:00 2.5 4 Oeste 9 Noroeste 0 -- -- 96
2017-12-31 02:00:00 3.2 4 Noroeste 8 Noroeste 0 -- -- 96
2017-12-31 01:00:00 3.7 5 Noroeste 9 Noroeste 0 -- -- 97